Time;durP1;ratioP1;P1;durP2;ratioP2;P2;SDS_P1;SDS_P2;PMS_P1;PMS_P2;Temp;Humidity;BMP_temperature;BMP_pressure;BME280_temperature;BME280_humidity;BME280_pressure;Samples;Min_cycle;Max_cycle;Signal;HPM_P1;HPM_P2
2023/05/30 00:01:22;;;;;;;4.32;2.10;;;;;;;;;;6115798;23;20105;-85
2023/05/30 00:03:50;;;;;;;9.13;2.40;;;;;;;;;;6117041;23;20045;-88
2023/05/30 00:06:16;;;;;;;6.13;2.50;;;;;;;;;;6116410;23;20046;-84
2023/05/30 00:08:43;;;;;;;6.00;3.38;;;;;;;;;;6117005;23;20300;-87
2023/05/30 00:11:13;;;;;;;8.02;2.30;;;;;;;;;;6116112;23;20017;-83
2023/05/30 00:13:39;;;;;;;3.88;1.50;;;;;;;;;;6115891;23;20456;-83
2023/05/30 00:16:07;;;;;;;6.20;1.92;;;;;;;;;;6118981;23;20043;-84
2023/05/30 00:18:36;;;;;;;5.43;2.15;;;;;;;;;;6114832;23;20049;-85
2023/05/30 00:21:05;;;;;;;2.58;0.95;;;;;;;;;;6116026;23;20044;-82
2023/05/30 00:23:32;;;;;;;4.45;1.75;;;;;;;;;;6116475;23;20045;-83
2023/05/30 00:25:59;;;;;;;4.78;1.77;;;;;;;;;;6118130;23;20018;-87
2023/05/30 00:28:25;;;;;;;6.95;1.90;;;;;;;;;;6116657;23;20386;-85
2023/05/30 00:30:52;;;;;;;7.43;2.45;;;;;;;;;;6116896;23;20436;-85
2023/05/30 00:33:18;;;;;;;4.60;1.73;;;;;;;;;;6116971;23;20018;-83
2023/05/30 00:35:44;;;;;;;7.30;2.10;;;;;;;;;;6115565;23;20336;-84
2023/05/30 00:38:10;;;;;;;8.27;2.08;;;;;;;;;;6119564;23;20113;-85
2023/05/30 00:40:36;;;;;;;5.38;1.70;;;;;;;;;;6115947;23;20329;-86
2023/05/30 00:43:02;;;;;;;6.70;2.30;;;;;;;;;;6116330;23;20040;-85
2023/05/30 00:45:28;;;;;;;7.03;1.67;;;;;;;;;;6116229;23;20028;-85
2023/05/30 00:47:54;;;;;;;4.35;2.42;;;;;;;;;;6118366;23;20014;-85
2023/05/30 00:50:21;;;;;;;6.28;2.30;;;;;;;;;;6117478;23;20018;-85
2023/05/30 00:52:50;;;;;;;4.43;2.25;;;;;;;;;;6117922;23;20018;-81
2023/05/30 00:55:16;;;;;;;5.45;2.53;;;;;;;;;;6118509;23;20014;-84
2023/05/30 00:57:43;;;;;;;5.38;2.38;;;;;;;;;;6115941;23;20022;-84
2023/05/30 01:00:10;;;;;;;7.57;2.13;;;;;;;;;;6116283;23;20018;-87
2023/05/30 01:02:36;;;;;;;6.55;2.58;;;;;;;;;;6118600;23;20024;-86
2023/05/30 01:05:03;;;;;;;5.45;2.35;;;;;;;;;;6119912;23;20018;-85
2023/05/30 01:07:29;;;;;;;3.75;2.22;;;;;;;;;;6116479;23;20069;-84
2023/05/30 01:09:55;;;;;;;5.50;2.15;;;;;;;;;;6118319;23;20053;-90
2023/05/30 01:12:30;;;;;;;5.68;2.00;;;;;;;;;;6117530;23;20129;-84
2023/05/30 01:15:07;;;;;;;5.53;2.78;;;;;;;;;;6117416;23;20025;-86
2023/05/30 01:17:45;;;;;;;6.97;2.83;;;;;;;;;;6117821;23;20025;-85
2023/05/30 01:20:17;;;;;;;6.63;2.33;;;;;;;;;;6120534;23;20033;-84
2023/05/30 01:22:49;;;;;;;5.72;2.13;;;;;;;;;;6117931;23;20569;-84
2023/05/30 01:25:22;;;;;;;8.15;2.20;;;;;;;;;;6120103;23;20339;-87
2023/05/30 01:28:09;;;;;;;7.93;2.28;;;;;;;;;;6117640;23;20152;-87
2023/05/30 01:30:39;;;;;;;0.98;0.50;;;;;;;;;;6117383;23;20064;-83
2023/05/30 01:33:09;;;;;;;5.40;1.90;;;;;;;;;;6117954;23;20028;-84
2023/05/30 01:35:35;;;;;;;4.63;2.20;;;;;;;;;;6116282;23;20054;-85
2023/05/30 01:38:01;;;;;;;5.38;1.67;;;;;;;;;;6120079;23;20495;-84
2023/05/30 01:40:28;;;;;;;5.97;1.80;;;;;;;;;;6118640;23;20018;-84
2023/05/30 01:43:15;;;;;;;6.55;2.25;;;;;;;;;;6122190;23;20056;-83
2023/05/30 01:45:51;;;;;;;1.38;1.15;;;;;;;;;;6121010;23;20017;-83
2023/05/30 01:48:56;;;;;;;6.75;2.22;;;;;;;;;;6119284;23;20018;-88
2023/05/30 01:51:27;;;;;;;3.60;1.88;;;;;;;;;;6006693;23;20023;-85
2023/05/30 01:53:58;;;;;;;3.65;1.70;;;;;;;;;;6007827;23;20121;-84
2023/05/30 01:56:25;;;;;;;9.38;1.80;;;;;;;;;;6007509;23;20452;-87
2023/05/30 01:58:52;;;;;;;6.18;1.95;;;;;;;;;;6013159;23;20023;-85
2023/05/30 02:01:19;;;;;;;7.55;2.45;;;;;;;;;;6007651;23;20029;-84
2023/05/30 02:03:47;;;;;;;3.95;1.65;;;;;;;;;;6008988;23;20019;-87
2023/05/30 02:06:13;;;;;;;8.23;2.08;;;;;;;;;;6006893;23;20016;-88
2023/05/30 02:08:39;;;;;;;6.35;2.95;;;;;;;;;;6005583;23;20467;-84
2023/05/30 02:11:05;;;;;;;2.38;1.70;;;;;;;;;;6006973;23;20513;-83
2023/05/30 02:13:32;;;;;;;6.80;1.90;;;;;;;;;;6005131;23;20026;-85
2023/05/30 02:15:59;;;;;;;5.30;2.05;;;;;;;;;;6006283;23;20016;-85
2023/05/30 02:18:27;;;;;;;4.22;1.60;;;;;;;;;;6005332;23;20019;-84
2023/05/30 02:20:54;;;;;;;3.47;1.70;;;;;;;;;;5982882;23;20158;-87
2023/05/30 02:23:20;;;;;;;4.45;1.65;;;;;;;;;;6118996;23;20022;-90
2023/05/30 02:25:46;;;;;;;7.03;2.35;;;;;;;;;;6093443;23;20018;-83
2023/05/30 02:28:12;;;;;;;3.75;1.73;;;;;;;;;;6119665;23;20384;-82
2023/05/30 02:30:38;;;;;;;3.63;1.55;;;;;;;;;;6116724;23;20018;-84
2023/05/30 02:33:04;;;;;;;5.82;2.00;;;;;;;;;;6120056;23;20026;-83
2023/05/30 02:35:30;;;;;;;5.60;1.77;;;;;;;;;;6117195;23;20018;-89
2023/05/30 02:37:56;;;;;;;4.07;2.15;;;;;;;;;;6093063;23;20049;-84
2023/05/30 02:40:22;;;;;;;4.18;2.05;;;;;;;;;;6117418;23;20462;-85
2023/05/30 02:42:49;;;;;;;3.42;2.88;;;;;;;;;;6114429;23;20061;-86
2023/05/30 02:45:15;;;;;;;6.95;2.90;;;;;;;;;;6116429;23;20014;-86
2023/05/30 02:47:41;;;;;;;4.93;2.10;;;;;;;;;;6118690;23;20050;-85
2023/05/30 02:50:07;;;;;;;6.45;1.90;;;;;;;;;;6116976;23;20018;-84
2023/05/30 02:52:33;;;;;;;2.42;1.77;;;;;;;;;;6116519;23;20014;-85
2023/05/30 02:54:59;;;;;;;5.53;1.90;;;;;;;;;;6117888;23;20029;-85
2023/05/30 02:57:25;;;;;;;5.82;1.60;;;;;;;;;;6116700;23;20045;-83
2023/05/30 02:59:52;;;;;;;3.60;1.92;;;;;;;;;;6115966;23;20022;-84
2023/05/30 03:02:18;;;;;;;2.53;1.48;;;;;;;;;;6117213;23;20014;-85
2023/05/30 03:04:45;;;;;;;5.88;2.00;;;;;;;;;;6117975;23;20081;-85
2023/05/30 03:07:12;;;;;;;3.97;2.22;;;;;;;;;;6119425;23;20050;-85
2023/05/30 03:09:39;;;;;;;5.60;2.85;;;;;;;;;;6115095;23;20501;-84
2023/05/30 03:12:05;;;;;;;5.30;1.90;;;;;;;;;;6116612;23;20049;-85
2023/05/30 03:14:31;;;;;;;5.38;2.05;;;;;;;;;;6115702;23;20068;-85
2023/05/30 03:16:57;;;;;;;6.05;1.95;;;;;;;;;;6117343;23;20021;-88
2023/05/30 03:19:23;;;;;;;4.80;2.05;;;;;;;;;;6118162;23;20069;-84
2023/05/30 03:21:52;;;;;;;7.15;2.55;;;;;;;;;;6117944;23;20021;-85
2023/05/30 03:24:18;;;;;;;5.47;2.20;;;;;;;;;;6116619;23;20024;-82
2023/05/30 03:26:44;;;;;;;2.30;1.90;;;;;;;;;;6118738;23;20022;-84
2023/05/30 03:29:10;;;;;;;6.22;2.30;;;;;;;;;;6116766;23;20241;-85
2023/05/30 03:31:36;;;;;;;8.82;2.35;;;;;;;;;;6115419;23;20313;-85
2023/05/30 03:34:03;;;;;;;5.90;2.13;;;;;;;;;;6116828;23;20478;-84
2023/05/30 03:36:29;;;;;;;6.13;1.95;;;;;;;;;;6116317;23;20522;-85
2023/05/30 03:38:55;;;;;;;3.03;1.67;;;;;;;;;;6119217;23;20022;-85
2023/05/30 03:41:21;;;;;;;3.53;1.90;;;;;;;;;;6116046;23;20339;-83
2023/05/30 03:43:47;;;;;;;6.38;2.00;;;;;;;;;;6115718;23;20022;-84
2023/05/30 03:46:19;;;;;;;4.60;2.20;;;;;;;;;;6117593;23;20325;-84
2023/05/30 03:48:45;;;;;;;5.03;2.00;;;;;;;;;;6117937;23;20022;-84
2023/05/30 03:51:12;;;;;;;5.07;1.92;;;;;;;;;;6118369;23;20014;-83
2023/05/30 03:53:38;;;;;;;10.20;2.75;;;;;;;;;;6115628;23;20321;-85
2023/05/30 03:56:05;;;;;;;6.43;1.83;;;;;;;;;;6119216;23;20022;-82
2023/05/30 03:58:31;;;;;;;8.32;2.38;;;;;;;;;;6117233;23;20090;-84
2023/05/30 04:01:00;;;;;;;5.38;1.88;;;;;;;;;;6118759;23;20025;-84
2023/05/30 04:03:26;;;;;;;6.95;2.03;;;;;;;;;;6117515;23;20018;-83
2023/05/30 04:05:53;;;;;;;5.97;2.30;;;;;;;;;;6118115;23;20018;-85
2023/05/30 04:08:19;;;;;;;4.90;1.85;;;;;;;;;;6116410;23;20073;-85
2023/05/30 04:10:45;;;;;;;6.25;2.03;;;;;;;;;;6118302;23;20313;-85
2023/05/30 04:13:11;;;;;;;4.70;2.05;;;;;;;;;;6116280;23;20022;-84
2023/05/30 04:15:37;;;;;;;4.95;2.00;;;;;;;;;;6115033;23;20424;-85
2023/05/30 04:18:03;;;;;;;8.43;1.95;;;;;;;;;;6117281;23;20060;-83
2023/05/30 04:20:29;;;;;;;4.85;2.05;;;;;;;;;;6091162;23;20045;-86
2023/05/30 04:22:55;;;;;;;5.22;1.90;;;;;;;;;;6117655;23;20013;-87
2023/05/30 04:25:22;;;;;;;7.75;2.03;;;;;;;;;;6118728;23;20018;-86
2023/05/30 04:27:48;;;;;;;3.92;2.20;;;;;;;;;;6118418;23;20028;-88
2023/05/30 04:30:14;;;;;;;5.05;1.90;;;;;;;;;;6114009;23;20026;-87
2023/05/30 04:32:40;;;;;;;4.75;2.03;;;;;;;;;;6114999;23;20018;-86
2023/05/30 04:35:07;;;;;;;3.45;2.33;;;;;;;;;;6117480;23;20014;-86
2023/05/30 04:37:33;;;;;;;6.57;2.70;;;;;;;;;;6117049;23;20112;-86
2023/05/30 04:40:00;;;;;;;5.40;2.20;;;;;;;;;;6117627;23;20048;-87
2023/05/30 04:42:26;;;;;;;2.83;1.73;;;;;;;;;;6119462;23;20014;-87
2023/05/30 04:44:53;;;;;;;4.72;2.00;;;;;;;;;;6120056;23;20085;-85
2023/05/30 04:47:21;;;;;;;6.72;2.58;;;;;;;;;;6117162;23;20053;-85
2023/05/30 04:49:48;;;;;;;6.43;1.98;;;;;;;;;;6117739;23;20453;-85
2023/05/30 04:52:16;;;;;;;4.10;1.88;;;;;;;;;;6118234;23;20124;-85
2023/05/30 04:54:42;;;;;;;3.90;1.45;;;;;;;;;;6094349;23;20017;-85
2023/05/30 04:57:08;;;;;;;6.82;2.38;;;;;;;;;;6118428;23;20313;-84
2023/05/30 04:59:35;;;;;;;5.80;2.00;;;;;;;;;;6119260;23;20080;-86
2023/05/30 05:02:01;;;;;;;5.18;1.70;;;;;;;;;;6121791;23;20016;-85
2023/05/30 05:04:27;;;;;;;7.32;2.20;;;;;;;;;;6120303;23;20028;-84
2023/05/30 05:06:53;;;;;;;6.65;1.92;;;;;;;;;;6120851;23;20201;-86
2023/05/30 05:09:21;;;;;;;7.45;2.30;;;;;;;;;;6118608;23;20028;-85
2023/05/30 05:11:47;;;;;;;5.25;2.05;;;;;;;;;;6120489;23;20017;-84
2023/05/30 05:14:13;;;;;;;5.20;1.70;;;;;;;;;;6119300;23;20014;-85
2023/05/30 05:16:39;;;;;;;4.45;2.80;;;;;;;;;;6122345;23;20021;-85
2023/05/30 05:19:05;;;;;;;6.38;1.95;;;;;;;;;;6122486;23;20314;-84
2023/05/30 05:21:31;;;;;;;5.60;1.85;;;;;;;;;;6118097;23;20347;-85
2023/05/30 05:23:57;;;;;;;6.82;2.25;;;;;;;;;;6118608;23;20029;-83
2023/05/30 05:26:23;;;;;;;5.00;2.03;;;;;;;;;;6120116;23;20014;-85
2023/05/30 05:28:49;;;;;;;6.20;2.10;;;;;;;;;;6121522;23;20020;-86
2023/05/30 05:31:15;;;;;;;7.68;1.92;;;;;;;;;;6118396;23;20018;-85
2023/05/30 05:33:42;;;;;;;4.60;2.20;;;;;;;;;;6119820;23;20016;-84
2023/05/30 05:36:08;;;;;;;9.57;2.38;;;;;;;;;;6118706;23;20017;-86
2023/05/30 05:38:34;;;;;;;6.25;2.33;;;;;;;;;;6117621;23;20506;-86
2023/05/30 05:41:00;;;;;;;5.95;2.17;;;;;;;;;;6118514;23;20080;-83
2023/05/30 05:43:26;;;;;;;5.82;1.90;;;;;;;;;;6120025;23;20093;-83
2023/05/30 05:45:52;;;;;;;6.13;2.13;;;;;;;;;;6117875;23;20432;-81
2023/05/30 05:48:19;;;;;;;6.07;2.53;;;;;;;;;;6119236;23;20364;-88
2023/05/30 05:50:45;;;;;;;5.85;2.03;;;;;;;;;;6119499;23;20022;-88
2023/05/30 05:53:11;;;;;;;4.57;1.88;;;;;;;;;;6116062;23;20022;-84
2023/05/30 05:55:36;;;;;;;4.45;2.03;;;;;;;;;;6117655;23;20566;-84
2023/05/30 05:58:02;;;;;;;5.38;2.33;;;;;;;;;;6116763;23;20024;-83
2023/05/30 06:00:30;;;;;;;5.03;1.92;;;;;;;;;;6119373;23;20018;-82
2023/05/30 06:02:56;;;;;;;16.30;3.35;;;;;;;;;;6090644;23;20625;-86
2023/05/30 06:05:22;;;;;;;8.15;2.45;;;;;;;;;;6116134;23;20018;-87
2023/05/30 06:07:48;;;;;;;7.82;2.50;;;;;;;;;;6116971;23;20017;-86
2023/05/30 06:10:14;;;;;;;6.05;2.25;;;;;;;;;;6117852;23;20018;-88
2023/05/30 06:12:40;;;;;;;5.13;2.03;;;;;;;;;;6117006;23;20029;-89
2023/05/30 06:15:07;;;;;;;3.75;1.67;;;;;;;;;;6120812;23;20010;-88
2023/05/30 06:17:33;;;;;;;5.80;1.92;;;;;;;;;;6118568;23;20017;-90
2023/05/30 06:19:59;;;;;;;4.40;1.73;;;;;;;;;;6118799;23;20105;-85
2023/05/30 06:22:24;;;;;;;4.68;2.15;;;;;;;;;;6117928;23;20053;-89
2023/05/30 06:24:51;;;;;;;3.22;1.83;;;;;;;;;;6117863;23;20444;-93
2023/05/30 06:27:17;;;;;;;4.25;1.60;;;;;;;;;;6117906;23;20018;-87
2023/05/30 06:29:43;;;;;;;3.95;1.73;;;;;;;;;;6119005;23;20449;-86
2023/05/30 06:32:12;;;;;;;4.80;1.83;;;;;;;;;;6118809;23;20408;-88
2023/05/30 06:34:38;;;;;;;2.13;1.40;;;;;;;;;;6094200;23;20049;-85
2023/05/30 06:37:04;;;;;;;6.13;2.08;;;;;;;;;;6120487;23;20018;-87
2023/05/30 06:39:31;;;;;;;6.25;2.00;;;;;;;;;;6118928;23;20324;-85
2023/05/30 06:41:57;;;;;;;5.05;1.90;;;;;;;;;;6117751;23;20041;-87
2023/05/30 06:44:23;;;;;;;3.95;1.85;;;;;;;;;;6118015;23;20466;-91
2023/05/30 06:46:49;;;;;;;5.97;1.75;;;;;;;;;;6093639;23;20053;-88
2023/05/30 06:49:15;;;;;;;6.03;1.88;;;;;;;;;;6118406;23;20025;-86
2023/05/30 06:51:41;;;;;;;5.60;1.95;;;;;;;;;;6117888;23;20104;-87
2023/05/30 06:54:07;;;;;;;3.65;1.63;;;;;;;;;;6120090;23;20014;-88
2023/05/30 06:56:33;;;;;;;5.38;1.58;;;;;;;;;;6116670;23;20499;-89
2023/05/30 06:58:59;;;;;;;4.55;1.70;;;;;;;;;;6119734;23;20440;-88
2023/05/30 07:01:25;;;;;;;5.10;2.20;;;;;;;;;;6117882;23;20443;-85
2023/05/30 07:03:51;;;;;;;4.97;2.25;;;;;;;;;;6119789;23;20026;-87
2023/05/30 07:06:17;;;;;;;5.10;1.88;;;;;;;;;;6117010;23;20081;-90
2023/05/30 07:08:43;;;;;;;4.35;1.98;;;;;;;;;;6118443;23;20022;-90
2023/05/30 07:11:09;;;;;;;2.97;1.50;;;;;;;;;;6120692;23;20024;-91
2023/05/30 07:13:35;;;;;;;4.15;1.70;;;;;;;;;;6117595;23;20088;-93
2023/05/30 07:16:01;;;;;;;4.15;1.52;;;;;;;;;;6121157;23;20384;-89
2023/05/30 07:18:27;;;;;;;3.25;1.45;;;;;;;;;;6121439;23;20022;-93
2023/05/30 07:20:53;;;;;;;5.78;2.30;;;;;;;;;;6120815;23;20022;-94
2023/05/30 07:23:19;;;;;;;4.57;1.63;;;;;;;;;;6121970;23;20021;-96
2023/05/30 07:25:45;;;;;;;4.65;1.88;;;;;;;;;;6125502;23;20077;-95
2023/05/30 07:28:12;;;;;;;4.22;1.85;;;;;;;;;;6099273;23;20014;-94
2023/05/30 07:30:38;;;;;;;4.10;1.73;;;;;;;;;;6093700;23;20076;-90
2023/05/30 07:33:04;;;;;;;3.22;1.60;;;;;;;;;;6119363;23;20018;-90
2023/05/30 07:35:30;;;;;;;4.55;1.58;;;;;;;;;;6121210;23;20014;-95
2023/05/30 07:37:56;;;;;;;2.70;1.20;;;;;;;;;;6100477;23;20097;-91
2023/05/30 07:40:22;;;;;;;3.05;1.65;;;;;;;;;;6118995;23;20045;-89
2023/05/30 07:42:48;;;;;;;2.33;1.23;;;;;;;;;;6127081;23;20029;-94
2023/05/30 07:45:15;;;;;;;4.30;1.25;;;;;;;;;;6130934;23;20037;-95
2023/05/30 07:47:41;;;;;;;2.70;1.10;;;;;;;;;;6107182;23;20014;-95
2023/05/30 07:50:07;;;;;;;1.55;1.05;;;;;;;;;;6126818;23;20018;-93
2023/05/30 07:52:34;;;;;;;1.75;1.15;;;;;;;;;;6122025;23;20454;-94
2023/05/30 07:55:00;;;;;;;2.92;1.20;;;;;;;;;;6129285;23;20014;-92
2023/05/30 07:57:26;;;;;;;2.80;1.08;;;;;;;;;;6127425;23;20018;-92
2023/05/30 07:59:52;;;;;;;1.42;1.08;;;;;;;;;;6124749;23;20014;-93
2023/05/30 08:02:19;;;;;;;3.00;1.40;;;;;;;;;;6122600;23;20643;-90
2023/05/30 08:04:45;;;;;;;3.85;1.02;;;;;;;;;;6118468;23;20056;-95
2023/05/30 08:07:11;;;;;;;4.68;1.42;;;;;;;;;;6120734;23;20017;-93
2023/05/30 08:09:37;;;;;;;3.10;0.93;;;;;;;;;;6119671;23;20061;-93
2023/05/30 08:12:05;;;;;;;3.28;1.27;;;;;;;;;;6124698;23;20482;-95
2023/05/30 08:14:32;;;;;;;2.70;0.80;;;;;;;;;;6099960;23;20050;-94
2023/05/30 08:16:58;;;;;;;1.45;0.85;;;;;;;;;;6100477;23;20101;-92
2023/05/30 08:19:24;;;;;;;2.30;0.80;;;;;;;;;;6121746;23;20022;-95
2023/05/30 08:21:50;;;;;;;2.33;0.90;;;;;;;;;;6096031;23;20041;-91
2023/05/30 08:24:16;;;;;;;3.35;1.00;;;;;;;;;;6120969;23;20435;-94
2023/05/30 08:26:42;;;;;;;2.60;0.90;;;;;;;;;;6120382;23;20020;-89
2023/05/30 08:29:08;;;;;;;2.28;1.13;;;;;;;;;;6093305;23;20057;-85
2023/05/30 08:31:34;;;;;;;2.00;0.75;;;;;;;;;;6121861;23;20014;-85
2023/05/30 08:34:04;;;;;;;1.40;0.73;;;;;;;;;;6121096;23;20347;-89
2023/05/30 08:36:32;;;;;;;2.85;0.80;;;;;;;;;;6118951;23;20041;-95
2023/05/30 08:38:58;;;;;;;1.95;0.80;;;;;;;;;;6118937;23;20021;-87
2023/05/30 08:41:25;;;;;;;1.35;0.85;;;;;;;;;;6118842;23;20210;-87
2023/05/30 08:43:51;;;;;;;2.10;1.00;;;;;;;;;;6116425;23;20018;-86
2023/05/30 08:46:18;;;;;;;2.28;0.85;;;;;;;;;;6114831;23;20097;-87
2023/05/30 08:48:45;;;;;;;3.08;0.98;;;;;;;;;;6115513;23;20025;-89
2023/05/30 08:51:13;;;;;;;2.15;1.00;;;;;;;;;;6117831;23;20036;-92
2023/05/30 08:53:43;;;;;;;1.00;0.90;;;;;;;;;;6115778;23;20052;-86
2023/05/30 08:56:11;;;;;;;1.88;1.10;;;;;;;;;;6118789;23;20040;-88
2023/05/30 08:58:42;;;;;;;2.63;0.88;;;;;;;;;;6117760;23;20018;-89
2023/05/30 09:01:10;;;;;;;2.70;0.68;;;;;;;;;;6093382;23;20045;-87
2023/05/30 09:03:36;;;;;;;1.38;0.73;;;;;;;;;;6117151;23;20050;-83
2023/05/30 09:06:03;;;;;;;1.33;0.98;;;;;;;;;;6117409;23;20377;-88
2023/05/30 09:08:30;;;;;;;2.40;1.23;;;;;;;;;;6114236;23;20118;-87
2023/05/30 09:10:57;;;;;;;1.10;0.80;;;;;;;;;;6117369;23;20103;-86
2023/05/30 09:13:23;;;;;;;3.03;0.95;;;;;;;;;;6117774;23;20340;-86
2023/05/30 09:15:49;;;;;;;1.52;1.00;;;;;;;;;;6115941;23;20451;-86
2023/05/30 09:18:16;;;;;;;1.52;0.90;;;;;;;;;;6117459;23;20017;-89
2023/05/30 09:20:42;;;;;;;1.20;1.00;;;;;;;;;;6118409;23;20069;-89
2023/05/30 09:23:09;;;;;;;2.38;0.90;;;;;;;;;;6117347;23;20032;-88
2023/05/30 09:25:54;;;;;;;1.25;0.77;;;;;;;;;;6117808;23;20089;-88
2023/05/30 09:28:27;;;;;;;2.90;0.90;;;;;;;;;;6117649;23;20321;-87
2023/05/30 09:30:54;;;;;;;1.08;0.82;;;;;;;;;;6120704;23;20068;-88
2023/05/30 09:33:20;;;;;;;1.13;0.98;;;;;;;;;;6121047;23;20020;-87
2023/05/30 09:35:47;;;;;;;2.88;1.55;;;;;;;;;;6119158;23;20045;-89
2023/05/30 09:38:18;;;;;;;2.85;1.75;;;;;;;;;;6119025;23;20053;-86
2023/05/30 09:40:44;;;;;;;2.85;1.10;;;;;;;;;;6119052;23;20018;-87
2023/05/30 09:43:10;;;;;;;2.75;0.90;;;;;;;;;;6118567;23;20026;-88
2023/05/30 09:45:36;;;;;;;2.72;1.30;;;;;;;;;;6117434;23;20040;-88
2023/05/30 09:48:03;;;;;;;2.97;1.30;;;;;;;;;;6120343;23;20435;-87
2023/05/30 09:50:29;;;;;;;2.35;1.33;;;;;;;;;;6117820;23;20070;-88
2023/05/30 09:52:56;;;;;;;1.95;1.25;;;;;;;;;;6119268;23;20026;-87
2023/05/30 09:55:24;;;;;;;2.80;1.20;;;;;;;;;;6118156;23;20048;-90
2023/05/30 09:57:51;;;;;;;2.95;0.90;;;;;;;;;;6116388;23;20097;-88
2023/05/30 10:00:24;;;;;;;1.58;1.13;;;;;;;;;;6120511;23;20065;-92
2023/05/30 10:02:54;;;;;;;1.10;0.90;;;;;;;;;;6095210;23;20093;-91
2023/05/30 10:05:21;;;;;;;2.75;1.17;;;;;;;;;;6117796;23;20056;-91
2023/05/30 10:07:48;;;;;;;1.73;1.10;;;;;;;;;;6120381;23;20411;-90
2023/05/30 10:10:15;;;;;;;1.25;0.90;;;;;;;;;;6119019;23;20132;-95
2023/05/30 10:12:47;;;;;;;1.65;1.25;;;;;;;;;;6116266;23;20106;-90
2023/05/30 10:15:13;;;;;;;3.10;1.30;;;;;;;;;;6121351;23;20379;-88
2023/05/30 10:17:44;;;;;;;1.67;0.98;;;;;;;;;;6119582;23;20094;-92
2023/05/30 10:20:11;;;;;;;1.42;0.98;;;;;;;;;;6120606;23;20336;-90
2023/05/30 10:22:45;;;;;;;1.88;0.98;;;;;;;;;;6117144;23;20859;-90
2023/05/30 10:25:11;;;;;;;2.22;1.00;;;;;;;;;;6120410;23;20022;-90
2023/05/30 10:27:43;;;;;;;1.65;0.90;;;;;;;;;;6117866;23;20022;-88
2023/05/30 10:30:11;;;;;;;2.65;1.08;;;;;;;;;;6117826;23;20049;-89
2023/05/30 10:32:39;;;;;;;2.15;1.63;;;;;;;;;;6118380;23;20018;-86
2023/05/30 10:35:09;;;;;;;2.40;1.10;;;;;;;;;;6120316;23;20014;-86
2023/05/30 10:37:36;;;;;;;2.08;1.40;;;;;;;;;;6117042;23;20022;-86
2023/05/30 10:40:25;;;;;;;1.92;1.00;;;;;;;;;;6121131;23;20018;-86
2023/05/30 10:42:57;;;;;;;4.80;1.40;;;;;;;;;;6005422;23;20055;-88
2023/05/30 10:45:31;;;;;;;2.30;1.40;;;;;;;;;;6030076;23;20131;-91
2023/05/30 10:48:06;;;;;;;2.03;1.08;;;;;;;;;;6030732;23;20048;-85
2023/05/30 10:50:38;;;;;;;1.10;1.00;;;;;;;;;;6030204;23;20015;-92
2023/05/30 10:53:20;;;;;;;1.13;0.93;;;;;;;;;;6007485;23;20038;-91
2023/05/30 10:55:47;;;;;;;2.95;1.20;;;;;;;;;;6007062;23;20038;-85
2023/05/30 10:58:35;;;;;;;1.30;0.95;;;;;;;;;;6006422;23;20023;-86
2023/05/30 11:01:20;;;;;;;1.00;0.77;;;;;;;;;;6030591;23;20016;-87
2023/05/30 11:03:46;;;;;;;1.65;0.90;;;;;;;;;;5982756;23;20098;-87
2023/05/30 11:06:12;;;;;;;1.10;1.00;;;;;;;;;;6006021;23;20158;-86
2023/05/30 11:08:40;;;;;;;1.17;0.80;;;;;;;;;;6030176;23;20019;-88
2023/05/30 11:11:16;;;;;;;1.90;0.60;;;;;;;;;;6030504;23;20475;-87
2023/05/30 11:13:45;;;;;;;0.68;0.68;;;;;;;;;;6007406;23;20015;-95
2023/05/30 11:16:24;;;;;;;1.88;0.90;;;;;;;;;;5984236;23;20018;-93
2023/05/30 11:18:52;;;;;;;1.40;0.85;;;;;;;;;;6018276;23;20063;-93
2023/05/30 11:21:41;;;;;;;1.98;0.77;;;;;;;;;;6122138;23;20014;-93
2023/05/30 11:24:17;;;;;;;0.65;0.65;;;;;;;;;;6080722;23;20104;-92
2023/05/30 11:26:43;;;;;;;;;;;;;;;;;;6102258;23;20398;-95
2023/05/30 11:29:28;;;;;;;1.15;0.93;;;;;;;;;;6129143;23;19921;-92
2023/05/30 11:31:54;;;;;;;1.00;0.70;;;;;;;;;;6104880;23;20013;-95
2023/05/30 11:34:20;;;;;;;0.57;0.52;;;;;;;;;;6104425;23;20025;-93
2023/05/30 11:36:47;;;;;;;0.70;0.60;;;;;;;;;;6124559;23;20010;-94
2023/05/30 11:39:13;;;;;;;0.60;0.57;;;;;;;;;;6104841;23;20018;-94
2023/05/30 11:41:40;;;;;;;1.60;1.02;;;;;;;;;;6102793;23;20032;-89
2023/05/30 11:44:08;;;;;;;1.52;0.65;;;;;;;;;;6127418;23;20344;-91
2023/05/30 11:46:34;;;;;;;0.57;0.57;;;;;;;;;;6123776;23;20022;-90
2023/05/30 11:49:07;;;;;;;1.13;0.50;;;;;;;;;;6123719;23;20018;-92
2023/05/30 11:51:33;;;;;;;1.33;0.68;;;;;;;;;;6120339;23;20066;-88
2023/05/30 11:53:59;;;;;;;1.27;0.50;;;;;;;;;;6121630;23;20049;-89
2023/05/30 11:56:29;;;;;;;0.82;0.65;;;;;;;;;;6119533;23;20312;-91
2023/05/30 11:58:56;;;;;;;1.45;0.70;;;;;;;;;;6120046;23;20014;-88
2023/05/30 12:01:26;;;;;;;1.95;0.80;;;;;;;;;;6116559;23;20022;-85
2023/05/30 12:03:54;;;;;;;0.90;0.90;;;;;;;;;;6119492;23;20014;-84
2023/05/30 12:06:20;;;;;;;2.03;0.80;;;;;;;;;;6117138;23;20143;-90
2023/05/30 12:08:47;;;;;;;0.60;0.60;;;;;;;;;;6117274;23;20018;-85
2023/05/30 12:11:13;;;;;;;0.95;0.70;;;;;;;;;;6117291;23;20018;-88
2023/05/30 12:13:40;;;;;;;1.70;0.90;;;;;;;;;;6117115;23;20100;-89
2023/05/30 12:16:06;;;;;;;1.20;0.85;;;;;;;;;;6117805;23;20042;-88
2023/05/30 12:18:33;;;;;;;1.45;0.90;;;;;;;;;;6115563;23;20026;-85
2023/05/30 12:21:02;;;;;;;1.38;0.70;;;;;;;;;;6117797;23;20022;-92
2023/05/30 12:23:29;;;;;;;1.55;0.75;;;;;;;;;;6117285;23;20459;-88
2023/05/30 12:25:56;;;;;;;1.33;0.70;;;;;;;;;;6118216;23;20026;-88
2023/05/30 12:28:23;;;;;;;1.88;0.73;;;;;;;;;;6117567;23;20014;-89
2023/05/30 12:30:51;;;;;;;0.93;0.60;;;;;;;;;;6118536;23;20080;-88
2023/05/30 12:33:17;;;;;;;1.73;0.95;;;;;;;;;;6120327;23;20014;-89
2023/05/30 12:35:44;;;;;;;1.30;1.20;;;;;;;;;;6118863;23;20014;-89
2023/05/30 12:38:15;;;;;;;0.75;0.70;;;;;;;;;;6120401;23;20018;-89
2023/05/30 12:40:42;;;;;;;1.23;0.85;;;;;;;;;;6116580;23;20483;-89
2023/05/30 12:43:08;;;;;;;3.70;1.00;;;;;;;;;;6119692;23;20025;-89
2023/05/30 12:45:34;;;;;;;0.80;0.80;;;;;;;;;;6117917;23;20338;-87
2023/05/30 12:48:00;;;;;;;1.30;0.70;;;;;;;;;;6121634;23;20018;-93
2023/05/30 12:50:26;;;;;;;2.20;0.90;;;;;;;;;;6093778;23;20391;-86
2023/05/30 12:52:52;;;;;;;0.98;0.88;;;;;;;;;;6120053;23;20010;-91
2023/05/30 12:55:18;;;;;;;0.88;0.68;;;;;;;;;;6118946;23;20026;-88
2023/05/30 12:57:44;;;;;;;1.00;0.38;;;;;;;;;;6094576;23;20021;-90
2023/05/30 13:00:11;;;;;;;2.13;0.60;;;;;;;;;;6120265;23;20498;-90
2023/05/30 13:02:37;;;;;;;0.77;0.60;;;;;;;;;;6118505;23;20028;-90
2023/05/30 13:05:03;;;;;;;0.70;0.70;;;;;;;;;;6117901;23;20064;-88
2023/05/30 13:07:29;;;;;;;1.63;1.10;;;;;;;;;;6118856;23;20397;-89
2023/05/30 13:09:55;;;;;;;1.85;0.85;;;;;;;;;;6094324;23;20042;-86
2023/05/30 13:12:21;;;;;;;1.60;0.77;;;;;;;;;;6120354;23;20750;-89
2023/05/30 13:14:47;;;;;;;1.05;0.80;;;;;;;;;;6118179;23;20068;-90
2023/05/30 13:17:13;;;;;;;1.15;0.57;;;;;;;;;;6118659;23;20068;-88
2023/05/30 13:19:40;;;;;;;1.00;0.90;;;;;;;;;;6117842;23;20439;-86
2023/05/30 13:22:07;;;;;;;1.70;0.82;;;;;;;;;;6119254;23;20325;-88
2023/05/30 13:24:33;;;;;;;0.80;0.50;;;;;;;;;;6117157;23;20018;-87
2023/05/30 13:27:00;;;;;;;0.70;0.50;;;;;;;;;;6121084;23;20014;-87
2023/05/30 13:29:26;;;;;;;1.05;0.65;;;;;;;;;;6119405;23;20021;-87
2023/05/30 13:31:52;;;;;;;0.98;0.80;;;;;;;;;;6120842;23;20045;-88
2023/05/30 13:34:18;;;;;;;0.80;0.63;;;;;;;;;;6121600;23;20018;-84
2023/05/30 13:36:44;;;;;;;1.20;0.70;;;;;;;;;;6117520;23;20021;-88
2023/05/30 13:39:10;;;;;;;0.90;0.70;;;;;;;;;;6118795;23;20032;-84
2023/05/30 13:41:36;;;;;;;0.60;0.60;;;;;;;;;;6117702;23;20523;-86
2023/05/30 13:44:03;;;;;;;0.90;0.70;;;;;;;;;;6118369;23;20054;-86
2023/05/30 13:46:29;;;;;;;0.68;0.60;;;;;;;;;;6119026;23;20018;-87
2023/05/30 13:48:57;;;;;;;1.38;0.70;;;;;;;;;;6118295;23;20355;-90
2023/05/30 13:51:23;;;;;;;0.80;0.80;;;;;;;;;;6115871;23;20335;-88
2023/05/30 13:53:49;;;;;;;1.75;0.88;;;;;;;;;;6118548;23;20018;-86
2023/05/30 13:56:16;;;;;;;0.93;0.60;;;;;;;;;;6118782;23;20396;-84
2023/05/30 13:58:42;;;;;;;1.20;0.60;;;;;;;;;;6120291;23;20025;-91
2023/05/30 14:01:08;;;;;;;0.90;0.63;;;;;;;;;;6120545;23;20022;-89
2023/05/30 14:03:34;;;;;;;1.30;0.93;;;;;;;;;;6118244;23;20021;-86
2023/05/30 14:06:01;;;;;;;1.63;0.63;;;;;;;;;;6119241;23;20451;-84
2023/05/30 14:08:27;;;;;;;1.55;0.73;;;;;;;;;;6119576;23;20021;-90
2023/05/30 14:10:54;;;;;;;0.80;0.65;;;;;;;;;;6117237;23;20014;-86
2023/05/30 14:13:20;;;;;;;0.82;0.55;;;;;;;;;;6117427;23;20514;-88
2023/05/30 14:15:46;;;;;;;2.20;0.98;;;;;;;;;;6121320;23;20018;-85
2023/05/30 14:18:12;;;;;;;1.17;0.70;;;;;;;;;;6118397;23;20024;-85
2023/05/30 14:20:38;;;;;;;1.05;0.77;;;;;;;;;;6116009;23;20057;-86
2023/05/30 14:23:04;;;;;;;0.70;0.63;;;;;;;;;;6118110;23;20069;-87
2023/05/30 14:25:30;;;;;;;0.85;0.80;;;;;;;;;;6120082;23;20094;-92
2023/05/30 14:27:56;;;;;;;1.17;0.68;;;;;;;;;;6120007;23;20053;-85
2023/05/30 14:30:22;;;;;;;1.10;0.80;;;;;;;;;;6119200;23;20018;-87
2023/05/30 14:32:48;;;;;;;1.63;0.57;;;;;;;;;;6119183;23;20325;-84
2023/05/30 14:35:15;;;;;;;1.00;0.73;;;;;;;;;;6117227;23;20384;-88
2023/05/30 14:37:41;;;;;;;0.82;0.70;;;;;;;;;;6092468;23;20028;-86
2023/05/30 14:40:09;;;;;;;1.38;0.70;;;;;;;;;;6120414;23;20018;-86
2023/05/30 14:42:35;;;;;;;0.77;0.70;;;;;;;;;;6118756;23;20022;-90
2023/05/30 14:45:01;;;;;;;0.75;0.70;;;;;;;;;;6122560;23;20018;-91